createdAt,value
2019-03-27T00:00:59.026Z,3.59
2019-03-27T00:01:59.028Z,3.59
2019-03-27T00:02:59.006Z,3.56
2019-03-27T00:03:59.008Z,3.53
2019-03-27T00:04:58.983Z,3.54
2019-03-27T00:05:58.967Z,3.45
2019-03-27T00:06:58.964Z,3.37
2019-03-27T00:07:58.991Z,3.33
2019-03-27T00:08:58.951Z,3.23
2019-03-27T00:09:58.927Z,3.23
2019-03-27T00:10:58.916Z,3.07
2019-03-27T00:11:58.907Z,3.17
2019-03-27T00:12:58.895Z,3.08
2019-03-27T00:13:58.956Z,2.89
2019-03-27T00:15:12.088Z,3.04
2019-03-27T00:15:59.867Z,3.04
2019-03-27T00:16:58.863Z,2.95
2019-03-27T00:17:58.846Z,2.99
2019-03-27T00:18:58.874Z,2.90
2019-03-27T00:19:58.826Z,2.98
2019-03-27T00:20:58.822Z,2.94
2019-03-27T00:21:58.806Z,2.86
2019-03-27T00:22:58.801Z,2.89
2019-03-27T00:23:58.797Z,2.80
2019-03-27T00:24:58.799Z,2.84
2019-03-27T00:25:58.792Z,2.94
2019-03-27T00:26:58.785Z,2.94
2019-03-27T00:27:58.775Z,2.94
2019-03-27T00:28:58.772Z,2.97
2019-03-27T00:29:58.721Z,3.10
2019-03-27T00:30:58.710Z,3.10
2019-03-27T00:31:58.715Z,3.04
2019-03-27T00:32:58.688Z,3.04
2019-03-27T00:33:58.693Z,3.10
2019-03-27T00:34:58.741Z,3.02
2019-03-27T00:35:58.659Z,3.04
2019-03-27T00:36:58.674Z,3.02
2019-03-27T00:37:58.642Z,3.07
2019-03-27T00:38:58.629Z,3.10
2019-03-27T00:39:58.663Z,3.04
2019-03-27T00:40:58.634Z,3.12
2019-03-27T00:41:58.596Z,3.12
2019-03-27T00:42:58.586Z,3.07
2019-03-27T00:43:58.585Z,3.19
2019-03-27T00:44:58.587Z,3.17
2019-03-27T00:45:58.553Z,3.16
2019-03-27T00:46:58.572Z,3.13
2019-03-27T00:47:58.566Z,3.10
2019-03-27T00:48:58.541Z,3.04
2019-03-27T00:49:58.562Z,2.98
2019-03-27T00:50:58.497Z,2.89
2019-03-27T00:51:58.488Z,2.86
2019-03-27T00:52:58.484Z,2.84
2019-03-27T00:53:58.467Z,2.87
2019-03-27T00:54:58.469Z,2.92
2019-03-27T00:55:58.475Z,2.84
2019-03-27T00:56:58.437Z,2.81
2019-03-27T00:57:58.428Z,2.79
2019-03-27T00:58:58.417Z,2.71
2019-03-27T00:59:58.420Z,2.76
2019-03-27T01:00:58.395Z,2.55
2019-03-27T01:01:58.432Z,2.63
2019-03-27T01:02:58.458Z,2.69
2019-03-27T01:03:58.365Z,2.83
2019-03-27T01:04:58.367Z,2.73
2019-03-27T01:05:58.344Z,2.71
2019-03-27T01:06:58.337Z,2.74
2019-03-27T01:07:58.345Z,2.81
2019-03-27T01:08:58.324Z,2.77
2019-03-27T01:09:58.367Z,2.73
2019-03-27T01:10:58.289Z,2.79
2019-03-27T01:11:58.286Z,2.73
2019-03-27T01:12:58.271Z,2.71
2019-03-27T01:13:58.263Z,2.59
2019-03-27T01:14:58.272Z,2.61
2019-03-27T01:15:58.290Z,2.66
2019-03-27T01:16:58.229Z,2.55
2019-03-27T01:17:58.218Z,2.48
2019-03-27T01:18:58.216Z,2.59
2019-03-27T01:19:58.220Z,2.51
2019-03-27T01:20:58.186Z,2.50
2019-03-27T01:21:58.237Z,2.48
2019-03-27T01:22:58.164Z,2.27
2019-03-27T01:23:58.157Z,2.12
2019-03-27T01:24:58.159Z,2.09
2019-03-27T01:25:58.136Z,2.00
2019-03-27T01:26:58.129Z,1.92
2019-03-27T01:27:58.156Z,1.92
2019-03-27T01:28:58.106Z,2.08
2019-03-27T01:29:58.106Z,2.00
2019-03-27T01:30:58.084Z,2.14
2019-03-27T01:31:58.076Z,2.23
2019-03-27T01:32:58.065Z,2.44
2019-03-27T01:33:58.085Z,2.48
2019-03-27T01:34:58.059Z,2.53
2019-03-27T01:35:58.027Z,2.59
2019-03-27T01:36:58.020Z,2.73
2019-03-27T01:37:58.007Z,2.76
2019-03-27T01:38:58.004Z,2.86
2019-03-27T01:39:58.028Z,2.87
2019-03-27T01:40:58.022Z,2.94
2019-03-27T01:41:57.965Z,2.83
2019-03-27T01:42:57.957Z,2.86
2019-03-27T01:43:57.952Z,2.84
2019-03-27T01:44:57.945Z,2.92
2019-03-27T01:45:57.923Z,2.86
2019-03-27T01:46:57.951Z,2.81
2019-03-27T01:47:57.905Z,2.83
2019-03-27T01:48:57.891Z,2.90
2019-03-27T01:49:57.904Z,2.83
2019-03-27T01:50:57.875Z,2.79
2019-03-27T01:51:57.861Z,2.83
2019-03-27T01:52:57.893Z,2.81
2019-03-27T01:53:57.839Z,2.81
2019-03-27T01:54:57.844Z,2.83
2019-03-27T01:55:57.823Z,2.83
2019-03-27T01:56:57.810Z,2.83
2019-03-27T01:57:57.846Z,2.77
2019-03-27T01:58:57.807Z,2.86
2019-03-27T01:59:57.815Z,2.80
2019-03-27T02:00:57.772Z,2.74
2019-03-27T02:01:57.759Z,2.56
2019-03-27T02:02:57.753Z,2.61
2019-03-27T02:03:57.734Z,2.61
2019-03-27T02:04:57.740Z,2.58
2019-03-27T02:05:57.764Z,2.55
2019-03-27T02:06:57.708Z,2.58
2019-03-27T02:07:57.692Z,2.48
2019-03-27T02:08:57.682Z,2.37
2019-03-27T02:09:57.694Z,2.33
2019-03-27T02:10:57.671Z,2.25
2019-03-27T02:11:57.702Z,2.36
2019-03-27T02:12:57.662Z,2.26
2019-03-27T02:13:57.651Z,2.14
2019-03-27T02:14:57.623Z,2.08
2019-03-27T02:16:06.709Z,2.09
2019-03-27T02:16:58.600Z,2.05
2019-03-27T02:17:57.589Z,2.05
2019-03-27T02:18:57.583Z,2.02
2019-03-27T02:19:57.600Z,1.93
2019-03-27T02:20:57.607Z,1.89
2019-03-27T02:21:57.578Z,1.82
2019-03-27T02:22:57.541Z,1.67
2019-03-27T02:23:57.525Z,1.57
2019-03-27T02:24:57.515Z,1.46
2019-03-27T02:25:57.520Z,1.34
2019-03-27T02:26:57.496Z,1.29
2019-03-27T02:27:57.505Z,1.29
2019-03-27T02:28:57.541Z,1.28
2019-03-27T02:29:57.596Z,1.38
2019-03-27T02:30:57.532Z,1.53
2019-03-27T02:31:57.442Z,1.64
2019-03-27T02:32:57.474Z,1.60
2019-03-27T02:33:57.420Z,1.44
2019-03-27T02:34:57.422Z,1.44
2019-03-27T02:35:57.456Z,1.31
2019-03-27T02:36:57.418Z,1.28
2019-03-27T02:37:57.386Z,1.29
2019-03-27T02:38:57.377Z,1.36
2019-03-27T02:39:57.360Z,1.38
2019-03-27T02:40:57.421Z,1.38
2019-03-27T02:41:57.341Z,1.50
2019-03-27T02:42:57.334Z,1.47
2019-03-27T02:43:57.318Z,1.60
2019-03-27T02:44:57.315Z,1.64
2019-03-27T02:45:57.313Z,1.72
2019-03-27T02:46:57.306Z,1.70
2019-03-27T02:47:57.300Z,1.68
2019-03-27T02:48:57.264Z,1.70
2019-03-27T02:49:57.255Z,1.79
2019-03-27T02:50:57.257Z,1.88
2019-03-27T02:51:57.236Z,1.93
2019-03-27T02:52:57.232Z,1.90
2019-03-27T02:53:57.244Z,1.89
2019-03-27T02:54:57.264Z,2.09
2019-03-27T02:55:57.228Z,2.15
2019-03-27T02:56:57.212Z,2.20
2019-03-27T02:57:57.200Z,2.09
2019-03-27T02:58:57.165Z,2.25
2019-03-27T02:59:57.151Z,2.44
2019-03-27T03:00:57.166Z,2.53
2019-03-27T03:01:57.135Z,2.74
2019-03-27T03:02:57.122Z,2.58
2019-03-27T03:03:57.130Z,2.69
2019-03-27T03:04:57.130Z,2.63
2019-03-27T03:05:57.152Z,2.65
2019-03-27T03:06:57.103Z,2.63
2019-03-27T03:07:57.068Z,2.58
2019-03-27T03:08:57.058Z,2.66
2019-03-27T03:09:57.046Z,2.73
2019-03-27T03:10:57.060Z,2.51
2019-03-27T03:11:57.068Z,2.47
2019-03-27T03:12:57.017Z,2.43
2019-03-27T03:13:57.020Z,2.37
2019-03-27T03:14:56.998Z,2.45
2019-03-27T03:15:57.000Z,2.47
2019-03-27T03:16:56.979Z,2.33
2019-03-27T03:17:57.040Z,2.41
2019-03-27T03:18:56.979Z,2.33
2019-03-27T03:19:56.941Z,2.29
2019-03-27T03:20:56.967Z,2.22
2019-03-27T03:21:56.921Z,2.25
2019-03-27T03:22:56.915Z,2.22
2019-03-27T03:23:56.907Z,2.23
2019-03-27T03:24:56.927Z,2.18
2019-03-27T03:25:56.886Z,2.01
2019-03-27T03:26:56.889Z,1.89
2019-03-27T03:27:56.859Z,1.90
2019-03-27T03:28:56.847Z,1.88
2019-03-27T03:29:56.843Z,1.79
2019-03-27T03:30:56.889Z,1.77
2019-03-27T03:31:56.835Z,1.70
2019-03-27T03:32:56.826Z,1.65
2019-03-27T03:33:56.799Z,1.71
2019-03-27T03:34:56.786Z,1.61
2019-03-27T03:35:56.777Z,1.64
2019-03-27T03:36:56.826Z,1.65
2019-03-27T03:37:56.753Z,1.53
2019-03-27T03:38:56.759Z,1.61
2019-03-27T03:39:56.733Z,1.57
2019-03-27T03:40:56.724Z,1.57
2019-03-27T03:41:56.725Z,1.60
2019-03-27T03:42:56.821Z,1.57
2019-03-27T03:43:56.738Z,1.67
2019-03-27T03:44:56.683Z,1.65
2019-03-27T03:45:56.673Z,1.57
2019-03-27T03:47:00.129Z,1.54
2019-03-27T03:47:56.653Z,1.52
2019-03-27T03:48:56.645Z,1.34
2019-03-27T03:49:56.676Z,1.14
2019-03-27T03:50:56.695Z,1.10
2019-03-27T03:51:56.619Z,1.04
2019-03-27T03:52:56.599Z,0.90
2019-03-27T03:53:56.601Z,0.75
2019-03-27T03:54:56.588Z,0.74
2019-03-27T03:55:56.566Z,0.64
2019-03-27T03:56:56.604Z,0.53
2019-03-27T03:57:56.549Z,0.49
2019-03-27T03:58:56.536Z,0.34
2019-03-27T03:59:56.526Z,0.26
2019-03-27T04:00:56.518Z,0.10
2019-03-27T04:01:56.532Z,0.07
2019-03-27T04:02:56.533Z,0.12
2019-03-27T04:03:56.491Z,0.07
2019-03-27T04:04:56.475Z,0.16
2019-03-27T04:05:56.463Z,0.07
2019-03-27T04:06:56.464Z,0.04
2019-03-27T04:07:56.450Z,0.10
2019-03-27T04:08:56.493Z,0.08
2019-03-27T04:09:56.435Z,0.04
2019-03-27T04:10:56.409Z,-0.01
2019-03-27T04:11:56.427Z,-0.06
2019-03-27T04:12:56.391Z,-0.09
2019-03-27T04:13:56.394Z,-0.17
2019-03-27T04:14:56.403Z,-0.32
2019-03-27T04:15:56.366Z,-0.39
2019-03-27T04:16:56.350Z,-0.49
2019-03-27T04:17:56.358Z,-0.65
2019-03-27T04:18:56.329Z,-0.65
2019-03-27T04:19:56.315Z,-0.78
2019-03-27T04:20:56.338Z,-0.74
2019-03-27T04:21:56.302Z,-0.67
2019-03-27T04:22:56.308Z,-0.62
2019-03-27T04:23:56.282Z,-0.68
2019-03-27T04:24:56.267Z,-0.81
2019-03-27T04:26:08.919Z,-0.73
2019-03-27T04:26:57.302Z,-0.76
2019-03-27T04:27:56.248Z,-0.77
2019-03-27T04:28:56.224Z,-0.92
2019-03-27T04:29:56.213Z,-0.93
2019-03-27T04:30:56.203Z,-0.85
2019-03-27T04:31:56.192Z,-0.83
2019-03-27T04:32:56.229Z,-0.90
2019-03-27T04:33:56.172Z,-0.95
2019-03-27T04:34:56.159Z,-0.95
2019-03-27T04:35:56.163Z,-0.96
2019-03-27T04:36:56.141Z,-0.97
2019-03-27T04:37:56.138Z,-1.08
2019-03-27T04:38:56.182Z,-1.08
2019-03-27T04:39:56.116Z,-1.10
2019-03-27T04:40:56.097Z,-0.99
2019-03-27T04:41:56.086Z,-0.97
2019-03-27T04:42:56.085Z,-0.86
2019-03-27T04:43:56.066Z,-0.56
2019-03-27T04:44:56.070Z,-0.35
2019-03-27T04:45:56.118Z,-0.16
2019-03-27T04:46:56.046Z,-0.20
2019-03-27T04:47:56.036Z,-0.39
2019-03-27T04:48:56.021Z,-0.35
2019-03-27T04:49:56.003Z,-0.45
2019-03-27T04:50:56.014Z,-0.49
2019-03-27T04:51:56.035Z,-0.52
2019-03-27T04:52:55.984Z,-0.52
2019-03-27T04:53:55.978Z,-0.39
2019-03-27T04:54:55.957Z,-0.42
2019-03-27T04:55:55.949Z,-0.39
2019-03-27T04:56:55.934Z,-0.30
2019-03-27T04:57:56.015Z,-0.01
2019-03-27T04:58:55.913Z,0.15
2019-03-27T04:59:55.900Z,0.17
2019-03-27T05:00:55.892Z,0.17
2019-03-27T05:01:55.879Z,0.40
2019-03-27T05:02:55.884Z,0.35
2019-03-27T05:03:55.904Z,0.41
2019-03-27T05:04:55.846Z,0.52
2019-03-27T05:05:55.890Z,0.56
2019-03-27T05:06:55.833Z,0.53
2019-03-27T05:07:55.848Z,0.48
2019-03-27T05:08:55.819Z,0.41
2019-03-27T05:09:55.799Z,0.30
2019-03-27T05:10:55.837Z,0.12
2019-03-27T05:11:55.831Z,0.07
2019-03-27T05:12:55.768Z,-0.12
2019-03-27T05:13:55.767Z,-0.17
2019-03-27T05:14:55.754Z,-0.31
2019-03-27T05:15:55.733Z,-0.50
2019-03-27T05:16:55.727Z,-0.52
2019-03-27T05:17:55.716Z,-0.50
2019-03-27T05:18:55.763Z,-0.53
2019-03-27T05:19:55.712Z,-0.68
2019-03-27T05:20:55.686Z,-0.83
2019-03-27T05:21:55.670Z,-0.96
2019-03-27T05:22:55.682Z,-0.97
2019-03-27T05:23:55.681Z,-1.08
2019-03-27T05:24:55.640Z,-0.99
2019-03-27T05:25:55.631Z,-0.96
2019-03-27T05:26:55.682Z,-0.85
2019-03-27T05:27:55.611Z,-0.73
2019-03-27T05:28:55.615Z,-0.55
2019-03-27T05:29:55.588Z,-0.34
2019-03-27T05:30:55.577Z,-0.31
2019-03-27T05:31:55.579Z,-0.12
2019-03-27T05:32:55.605Z,-0.09
2019-03-27T05:33:55.567Z,-0.13
2019-03-27T05:34:55.542Z,-0.19
2019-03-27T05:35:55.536Z,-0.35
2019-03-27T05:36:55.520Z,-0.27
2019-03-27T05:37:55.516Z,-0.41
2019-03-27T05:38:55.569Z,-0.49
2019-03-27T05:39:55.492Z,-0.47
2019-03-27T05:40:55.477Z,-0.65
2019-03-27T05:41:55.473Z,-0.56
2019-03-27T05:43:00.933Z,-0.70
2019-03-27T05:43:56.461Z,-0.58
2019-03-27T05:44:55.475Z,-0.55
2019-03-27T05:45:55.437Z,-0.39
2019-03-27T05:46:55.416Z,-0.35
2019-03-27T05:47:59.732Z,-0.26
2019-03-27T05:48:55.417Z,-0.13
2019-03-27T05:49:55.380Z,-0.16
2019-03-27T05:50:55.436Z,-0.06
2019-03-27T05:51:55.411Z,-0.14
2019-03-27T05:52:55.352Z,-0.17
2019-03-27T05:53:55.364Z,-0.23
2019-03-27T05:54:55.329Z,-0.17
2019-03-27T05:55:55.323Z,-0.20
2019-03-27T05:56:55.317Z,-0.17
2019-03-27T05:57:55.298Z,-0.16
2019-03-27T05:58:55.331Z,-0.17
2019-03-27T05:59:55.292Z,-0.12
2019-03-27T06:00:55.269Z,-0.08
2019-03-27T06:01:55.268Z,0.08
2019-03-27T06:02:55.248Z,0.26
2019-03-27T06:03:55.255Z,0.48
2019-03-27T06:04:55.289Z,0.59
2019-03-27T06:05:55.233Z,0.80
2019-03-27T06:06:55.204Z,0.86
2019-03-27T06:07:55.265Z,1.06
2019-03-27T06:08:55.197Z,1.10
2019-03-27T06:09:55.173Z,1.04
2019-03-27T06:10:55.178Z,1.21
2019-03-27T06:11:55.231Z,1.31
2019-03-27T06:12:55.164Z,1.38
2019-03-27T06:13:55.144Z,1.52
2019-03-27T06:14:55.125Z,1.61
2019-03-27T06:15:55.110Z,2.05
2019-03-27T06:16:55.114Z,2.61
2019-03-27T06:17:55.137Z,3.22
2019-03-27T06:18:55.151Z,3.78
2019-03-27T06:19:55.080Z,4.18
2019-03-27T06:20:55.063Z,4.46
2019-03-27T06:21:55.051Z,4.69
2019-03-27T06:22:55.057Z,4.83
2019-03-27T06:23:55.064Z,5.09
2019-03-27T06:24:55.067Z,5.27
2019-03-27T06:25:55.012Z,5.29
2019-03-27T06:26:55.015Z,5.14
2019-03-27T06:27:54.996Z,5.23
2019-03-27T06:28:54.992Z,5.32
2019-03-27T06:29:55.050Z,5.37
2019-03-27T06:30:55.021Z,5.74
2019-03-27T06:31:54.950Z,5.44
2019-03-27T06:32:54.988Z,5.29
2019-03-27T06:33:55.110Z,5.33
2019-03-27T06:34:54.929Z,5.77
2019-03-27T06:35:54.908Z,5.99
2019-03-27T06:36:55.022Z,5.80
2019-03-27T06:37:54.891Z,5.92
2019-03-27T06:38:54.877Z,6.46
2019-03-27T06:39:54.874Z,6.58
2019-03-27T06:40:54.854Z,6.90
2019-03-27T06:41:54.936Z,6.19
2019-03-27T06:42:54.869Z,5.98
2019-03-27T06:43:54.825Z,5.62
2019-03-27T06:44:54.820Z,5.62
2019-03-27T06:45:54.802Z,5.90
2019-03-27T06:46:54.797Z,5.90
2019-03-27T06:47:54.780Z,5.58
2019-03-27T06:48:54.793Z,5.73
2019-03-27T06:49:54.808Z,5.95
2019-03-27T06:50:54.761Z,6.05
2019-03-27T06:51:54.778Z,5.90
2019-03-27T06:52:54.727Z,5.62
2019-03-27T06:53:54.718Z,5.22
2019-03-27T06:54:54.724Z,5.09
2019-03-27T06:55:54.695Z,5.26
2019-03-27T06:56:54.714Z,5.45
2019-03-27T06:57:54.684Z,5.29
2019-03-27T06:58:55.191Z,5.09
2019-03-27T06:59:54.684Z,5.59
2019-03-27T07:00:54.644Z,6.25
2019-03-27T07:01:54.645Z,5.95
2019-03-27T07:02:54.625Z,6.58
2019-03-27T07:03:54.630Z,6.36
2019-03-27T07:04:54.630Z,6.20
2019-03-27T07:05:54.655Z,6.13
2019-03-27T07:06:54.605Z,7.12
2019-03-27T07:07:54.616Z,6.90
2019-03-27T07:08:54.565Z,6.94
2019-03-27T07:09:54.564Z,6.83
2019-03-27T07:10:54.533Z,6.69
2019-03-27T07:11:54.549Z,6.32
2019-03-27T07:12:54.512Z,6.02
2019-03-27T07:13:54.522Z,6.14
2019-03-27T07:14:54.504Z,5.90
2019-03-27T07:15:54.482Z,5.74
2019-03-27T07:16:54.482Z,5.88
2019-03-27T07:17:54.476Z,6.11
2019-03-27T07:18:54.452Z,6.42
2019-03-27T07:19:54.482Z,6.33
2019-03-27T07:20:54.431Z,6.19
2019-03-27T07:21:54.419Z,6.16
2019-03-27T07:22:54.410Z,6.50
2019-03-27T07:23:54.426Z,6.93
2019-03-27T07:24:54.392Z,6.97
2019-03-27T07:25:54.389Z,6.60
2019-03-27T07:26:54.364Z,6.33
2019-03-27T07:27:54.352Z,6.20
2019-03-27T07:28:54.344Z,6.11
2019-03-27T07:29:54.389Z,6.14
2019-03-27T07:30:54.338Z,6.30
2019-03-27T07:31:54.310Z,6.21
2019-03-27T07:32:54.301Z,6.17
2019-03-27T07:33:54.297Z,6.11
2019-03-27T07:34:54.295Z,6.01
2019-03-27T07:35:54.288Z,5.99
2019-03-27T07:36:56.208Z,5.98
2019-03-27T07:37:54.337Z,6.14
2019-03-27T07:38:54.262Z,6.01
2019-03-27T07:39:54.246Z,5.98
2019-03-27T07:40:54.280Z,5.99
2019-03-27T07:41:54.204Z,6.13
2019-03-27T07:42:54.241Z,6.16
2019-03-27T07:43:54.190Z,6.51
2019-03-27T07:44:54.181Z,6.57
2019-03-27T07:45:54.220Z,6.61
2019-03-27T07:46:54.149Z,6.71
2019-03-27T07:47:54.142Z,6.76
2019-03-27T07:48:54.524Z,6.86
2019-03-27T07:49:54.121Z,6.81
2019-03-27T07:50:54.172Z,6.79
2019-03-27T07:51:54.120Z,6.79
2019-03-27T07:52:54.087Z,6.79
2019-03-27T07:53:54.077Z,6.97
2019-03-27T07:54:54.067Z,6.96
2019-03-27T07:55:54.072Z,6.96
2019-03-27T07:56:54.074Z,7.00
2019-03-27T07:57:54.070Z,7.04
2019-03-27T07:58:54.026Z,6.96
2019-03-27T07:59:54.011Z,7.12
2019-03-27T08:00:54.026Z,7.36
2019-03-27T08:01:53.997Z,7.51
2019-03-27T08:02:53.979Z,7.52
2019-03-27T08:03:54.032Z,7.60
2019-03-27T08:04:53.963Z,7.47
2019-03-27T08:05:53.961Z,7.51
2019-03-27T08:06:53.946Z,7.52
2019-03-27T08:07:53.938Z,7.67
2019-03-27T08:08:53.953Z,7.63
2019-03-27T08:09:53.926Z,7.58
2019-03-27T08:10:53.975Z,7.50
2019-03-27T08:11:53.900Z,7.71
2019-03-27T08:12:53.938Z,8.78
2019-03-27T08:13:53.929Z,10.16
2019-03-27T08:14:53.864Z,10.86
2019-03-27T08:15:53.890Z,11.01
2019-03-27T08:16:53.888Z,11.42
2019-03-27T08:17:53.832Z,10.35
2019-03-27T08:19:06.671Z,10.35
2019-03-27T08:19:54.817Z,9.71
2019-03-27T08:20:53.969Z,8.78
2019-03-27T08:21:53.786Z,8.64
2019-03-27T08:22:53.812Z,8.82
2019-03-27T08:23:53.810Z,9.35
2019-03-27T08:24:53.748Z,8.86
2019-03-27T08:25:53.893Z,8.76
2019-03-27T08:26:53.777Z,8.68
2019-03-27T08:27:53.744Z,8.54
2019-03-27T08:28:53.744Z,8.58
2019-03-27T08:29:53.713Z,8.70
2019-03-27T08:30:53.711Z,8.52
2019-03-27T08:31:53.712Z,8.46
2019-03-27T08:32:53.686Z,8.32
2019-03-27T08:33:53.708Z,8.27
2019-03-27T08:34:53.722Z,8.28
2019-03-27T08:35:53.709Z,8.24
2019-03-27T08:36:53.618Z,8.68
2019-03-27T08:37:53.636Z,9.96
2019-03-27T08:38:53.608Z,10.44
2019-03-27T08:39:53.611Z,10.16
2019-03-27T08:40:53.649Z,9.49
2019-03-27T08:41:53.800Z,9.49
2019-03-27T08:42:53.788Z,9.27
2019-03-27T08:43:53.544Z,8.96
2019-03-27T08:44:53.534Z,8.82
2019-03-27T08:45:53.534Z,8.83
2019-03-27T08:46:53.539Z,9.44
2019-03-27T08:47:53.513Z,10.86
2019-03-27T08:48:53.526Z,11.97
2019-03-27T08:49:53.486Z,12.96
2019-03-27T08:50:53.537Z,13.79
2019-03-27T08:51:53.482Z,14.59
2019-03-27T08:52:53.489Z,14.27
2019-03-27T08:53:53.479Z,14.36
2019-03-27T08:54:53.506Z,14.41
2019-03-27T08:55:53.533Z,14.31
2019-03-27T08:56:53.450Z,14.75
2019-03-27T08:57:53.405Z,15.67
2019-03-27T08:58:53.386Z,16.36
2019-03-27T08:59:53.402Z,16.90
2019-03-27T09:00:53.367Z,17.28
2019-03-27T09:01:53.461Z,17.32
2019-03-27T09:02:53.417Z,16.81
2019-03-27T09:03:53.408Z,16.23
2019-03-27T09:04:53.320Z,16.04
2019-03-27T09:05:53.346Z,16.04
2019-03-27T09:06:53.309Z,16.11
2019-03-27T09:07:53.288Z,16.77
2019-03-27T09:08:53.294Z,16.30
2019-03-27T09:09:53.308Z,16.13
2019-03-27T09:10:53.281Z,16.52
2019-03-27T09:11:53.310Z,16.57
2019-03-27T09:12:53.243Z,16.81
2019-03-27T09:13:53.242Z,16.33
2019-03-27T09:14:53.250Z,15.92
2019-03-27T09:15:53.267Z,16.60
2019-03-27T09:16:53.241Z,17.33
2019-03-27T09:17:53.200Z,17.91
2019-03-27T09:18:53.234Z,18.53
2019-03-27T09:19:53.179Z,19.17
2019-03-27T09:20:53.150Z,19.28
2019-03-27T09:21:53.184Z,19.05
2019-03-27T09:22:53.152Z,18.87
2019-03-27T09:23:53.132Z,19.23
2019-03-27T09:24:53.133Z,18.64
2019-03-27T09:25:53.107Z,17.65
2019-03-27T09:26:53.115Z,17.43
2019-03-27T09:27:53.088Z,18.13
2019-03-27T09:28:53.081Z,18.02
2019-03-27T09:29:53.138Z,17.07
2019-03-27T09:30:53.051Z,16.55
2019-03-27T09:31:53.084Z,16.23
2019-03-27T09:32:53.058Z,16.11
2019-03-27T09:33:53.016Z,16.36
2019-03-27T09:34:53.046Z,16.26
2019-03-27T09:35:53.047Z,16.80
2019-03-27T09:36:53.076Z,16.22
2019-03-27T09:37:53.012Z,15.89
2019-03-27T09:38:52.953Z,15.49
2019-03-27T09:39:52.990Z,15.70
2019-03-27T09:40:52.934Z,16.08
2019-03-27T09:41:52.946Z,16.42
2019-03-27T09:42:52.960Z,16.33
2019-03-27T09:43:52.918Z,16.34
2019-03-27T09:44:52.898Z,16.55
2019-03-27T09:45:52.897Z,15.89
2019-03-27T09:46:52.889Z,14.34
2019-03-27T09:47:52.907Z,13.63
2019-03-27T09:48:52.868Z,14.27
2019-03-27T09:49:52.849Z,14.71
2019-03-27T09:50:52.848Z,14.75
2019-03-27T09:51:52.850Z,14.86
2019-03-27T09:52:52.876Z,13.76
2019-03-27T09:53:53.305Z,13.10
2019-03-27T09:54:52.861Z,13.13
2019-03-27T09:55:52.767Z,13.99
2019-03-27T09:56:52.797Z,14.35
2019-03-27T09:57:52.774Z,14.49
2019-03-27T09:58:52.785Z,15.56
2019-03-27T09:59:52.744Z,15.60
2019-03-27T10:00:52.748Z,14.79
2019-03-27T10:01:52.759Z,13.88
2019-03-27T10:02:52.705Z,13.27
2019-03-27T10:03:52.738Z,12.99
2019-03-27T10:04:55.829Z,12.92
2019-03-27T10:05:52.699Z,12.67
2019-03-27T10:06:52.711Z,12.58
2019-03-27T10:07:52.671Z,12.58
2019-03-27T10:08:52.665Z,12.69
2019-03-27T10:09:52.655Z,12.51
2019-03-27T10:10:52.663Z,12.49
2019-03-27T10:11:52.626Z,12.29
2019-03-27T10:12:52.597Z,12.07
2019-03-27T10:13:52.602Z,11.64
2019-03-27T10:14:52.581Z,11.56
2019-03-27T10:15:52.559Z,11.48
2019-03-27T10:16:52.559Z,11.42
2019-03-27T10:17:52.549Z,11.46
2019-03-27T10:18:52.527Z,11.64
2019-03-27T10:20:02.844Z,11.64
2019-03-27T10:20:53.564Z,11.96
2019-03-27T10:21:52.533Z,12.01
2019-03-27T10:22:52.490Z,12.05
2019-03-27T10:23:52.494Z,12.00
2019-03-27T10:24:52.499Z,12.15
2019-03-27T10:25:52.489Z,12.05
2019-03-27T10:26:52.500Z,11.88
2019-03-27T10:27:52.434Z,11.84
2019-03-27T10:28:52.430Z,11.90
2019-03-27T10:29:52.441Z,11.90
2019-03-27T10:30:52.435Z,12.01
2019-03-27T10:31:52.451Z,12.16
2019-03-27T10:32:52.410Z,11.87
2019-03-27T10:33:52.403Z,11.70
2019-03-27T10:34:52.408Z,11.81
2019-03-27T10:35:52.421Z,11.63
2019-03-27T10:36:52.401Z,11.87
2019-03-27T10:37:52.344Z,11.81
2019-03-27T10:38:52.348Z,11.96
2019-03-27T10:39:52.394Z,12.05
2019-03-27T10:40:52.357Z,12.25
2019-03-27T10:41:52.298Z,12.40
2019-03-27T10:42:52.297Z,12.43
2019-03-27T10:43:52.258Z,12.18
2019-03-27T10:44:52.371Z,12.05
2019-03-27T10:45:52.259Z,12.05
2019-03-27T10:46:52.259Z,11.97
2019-03-27T10:47:52.284Z,12.00
2019-03-27T10:48:53.226Z,11.88
2019-03-27T10:49:52.255Z,12.01
2019-03-27T10:50:52.203Z,11.87
2019-03-27T10:51:52.198Z,12.11
2019-03-27T10:52:52.248Z,12.26
2019-03-27T10:53:52.154Z,12.38
2019-03-27T10:54:52.201Z,12.38
2019-03-27T10:55:52.169Z,12.61
2019-03-27T10:56:52.150Z,12.71
2019-03-27T10:57:52.164Z,12.58
2019-03-27T10:58:52.123Z,12.38
2019-03-27T10:59:52.096Z,12.07
2019-03-27T11:00:52.120Z,12.30
2019-03-27T11:01:52.091Z,12.40
2019-03-27T11:02:52.097Z,12.70
2019-03-27T11:03:52.071Z,12.81
2019-03-27T11:04:52.065Z,12.76
2019-03-27T11:05:52.033Z,13.59
2019-03-27T11:06:52.056Z,13.39
2019-03-27T11:07:52.058Z,13.19
2019-03-27T11:08:51.997Z,12.96
2019-03-27T11:09:52.002Z,13.62
2019-03-27T11:10:52.013Z,13.68
2019-03-27T11:11:52.001Z,13.69
2019-03-27T11:12:52.009Z,13.71
2019-03-27T11:13:51.955Z,13.53
2019-03-27T11:14:51.949Z,13.35
2019-03-27T11:15:51.984Z,13.88
2019-03-27T11:16:51.950Z,14.69
2019-03-27T11:17:51.922Z,14.38
2019-03-27T11:18:51.912Z,14.11
2019-03-27T11:19:51.896Z,14.53
2019-03-27T11:20:52.025Z,14.30
2019-03-27T11:21:51.858Z,15.07
2019-03-27T11:22:51.943Z,15.25
2019-03-27T11:23:51.854Z,14.52
2019-03-27T11:24:51.960Z,13.99
2019-03-27T11:25:51.808Z,14.36
2019-03-27T11:26:51.869Z,14.35
2019-03-27T11:27:51.807Z,14.06
2019-03-27T11:28:51.798Z,13.91
2019-03-27T11:29:51.841Z,14.05
2019-03-27T11:30:51.785Z,14.19
2019-03-27T11:31:51.765Z,14.08
2019-03-27T11:32:51.792Z,14.24
2019-03-27T11:33:51.776Z,13.69
2019-03-27T11:34:51.720Z,13.80
2019-03-27T11:35:51.996Z,14.12
2019-03-27T11:36:51.698Z,13.83
2019-03-27T11:37:51.710Z,13.87
2019-03-27T11:38:51.684Z,13.90
2019-03-27T11:39:51.749Z,13.75
2019-03-27T11:40:51.684Z,13.75
2019-03-27T11:41:51.650Z,13.65
2019-03-27T11:42:51.702Z,13.61
2019-03-27T11:43:55.044Z,13.31
2019-03-27T11:44:51.625Z,13.35
2019-03-27T11:45:51.642Z,13.61
2019-03-27T11:46:51.619Z,13.41
2019-03-27T11:47:51.604Z,13.41
2019-03-27T11:48:51.656Z,13.29
2019-03-27T11:49:51.601Z,13.13
2019-03-27T11:50:51.560Z,12.71
2019-03-27T11:51:51.563Z,12.79
2019-03-27T11:52:51.661Z,12.79
2019-03-27T11:53:51.543Z,12.77
2019-03-27T11:54:51.550Z,12.71
2019-03-27T11:55:51.555Z,12.74
2019-03-27T11:56:51.490Z,12.85
2019-03-27T11:57:51.493Z,12.71
2019-03-27T11:58:51.500Z,12.62
2019-03-27T11:59:54.107Z,12.59
2019-03-27T12:00:54.952Z,12.58
2019-03-27T12:01:51.480Z,12.51
2019-03-27T12:02:51.499Z,12.66
2019-03-27T12:03:51.456Z,12.26
2019-03-27T12:04:51.381Z,12.08
2019-03-27T12:05:51.395Z,12.04
2019-03-27T12:06:51.407Z,12.30
2019-03-27T12:07:51.372Z,12.43
2019-03-27T12:08:51.368Z,12.25
2019-03-27T12:09:51.370Z,12.40
2019-03-27T12:10:51.323Z,12.37
2019-03-27T12:11:51.352Z,12.52
2019-03-27T12:12:51.302Z,12.61
2019-03-27T12:13:51.324Z,12.55
2019-03-27T12:14:51.314Z,12.52
2019-03-27T12:15:51.358Z,12.25
2019-03-27T12:16:51.271Z,12.29
2019-03-27T12:17:51.295Z,12.49
2019-03-27T12:18:51.357Z,12.15
2019-03-27T12:19:51.248Z,12.16
2019-03-27T12:20:58.952Z,12.21
2019-03-27T12:21:54.697Z,12.03
2019-03-27T12:22:57.744Z,12.01
2019-03-27T12:23:52.242Z,12.16
2019-03-27T12:24:51.263Z,12.36
2019-03-27T12:25:51.247Z,12.13
2019-03-27T12:26:51.153Z,12.16
2019-03-27T12:27:51.140Z,12.12
2019-03-27T12:28:51.187Z,12.01
2019-03-27T12:29:51.192Z,12.08
2019-03-27T12:30:51.233Z,12.26
2019-03-27T12:31:51.095Z,12.16
2019-03-27T12:32:51.100Z,12.13
2019-03-27T12:33:51.118Z,12.13
2019-03-27T12:34:51.088Z,12.13
2019-03-27T12:35:51.081Z,12.26
2019-03-27T12:36:51.049Z,12.16
2019-03-27T12:37:51.060Z,12.12
2019-03-27T12:38:51.015Z,12.03
2019-03-27T12:39:51.060Z,11.98
2019-03-27T12:40:51.077Z,11.84
2019-03-27T12:41:50.989Z,11.78
2019-03-27T12:42:50.980Z,11.66
2019-03-27T12:43:51.021Z,11.72
2019-03-27T12:44:51.048Z,11.74
2019-03-27T12:45:50.959Z,11.66
2019-03-27T12:46:52.025Z,11.60
2019-03-27T12:47:51.033Z,11.66
2019-03-27T12:48:50.924Z,11.66
2019-03-27T12:49:52.015Z,11.59
2019-03-27T12:50:50.906Z,11.56
2019-03-27T12:51:50.891Z,11.67
2019-03-27T12:52:50.940Z,11.72
2019-03-27T12:53:50.957Z,11.84
2019-03-27T12:54:50.930Z,11.87
2019-03-27T12:55:50.857Z,12.15
2019-03-27T12:56:50.875Z,12.25
2019-03-27T12:57:50.886Z,12.52
2019-03-27T12:58:50.864Z,12.70
2019-03-27T12:59:50.861Z,13.17
2019-03-27T13:00:50.812Z,13.43
2019-03-27T13:01:50.774Z,14.20
2019-03-27T13:02:50.777Z,13.90
2019-03-27T13:03:50.766Z,13.81
2019-03-27T13:04:50.920Z,13.66
2019-03-27T13:05:50.752Z,13.71
2019-03-27T13:06:50.723Z,13.81